createdAt,value
2018-03-11T00:00:46.603Z,5.94
2018-03-11T00:02:07.591Z,6.01
2018-03-11T00:02:46.570Z,6.01
2018-03-11T00:04:07.560Z,5.99
2018-03-11T00:04:46.541Z,5.97
2018-03-11T00:05:46.528Z,5.94
2018-03-11T00:07:07.521Z,5.99
2018-03-11T00:07:46.507Z,6.00
2018-03-11T00:09:07.499Z,5.96
2018-03-11T00:09:46.480Z,5.99
2018-03-11T00:10:46.460Z,6.00
2018-03-11T00:12:07.458Z,6.00
2018-03-11T00:12:46.438Z,6.03
2018-03-11T00:14:07.427Z,6.08
2018-03-11T00:14:46.410Z,6.22
2018-03-11T00:15:46.403Z,6.22
2018-03-11T00:17:07.393Z,6.22
2018-03-11T00:17:46.375Z,6.28
2018-03-11T00:19:07.364Z,6.40
2018-03-11T00:19:46.349Z,6.41
2018-03-11T00:20:46.334Z,6.48
2018-03-11T00:22:07.329Z,6.51
2018-03-11T00:22:46.301Z,6.51
2018-03-11T00:24:07.294Z,6.58
2018-03-11T00:24:46.277Z,6.58
2018-03-11T00:25:46.264Z,6.58
2018-03-11T00:27:07.253Z,6.71
2018-03-11T00:27:46.238Z,6.66
2018-03-11T00:29:07.511Z,6.64
2018-03-11T00:29:46.210Z,6.56
2018-03-11T00:30:46.192Z,6.52
2018-03-11T00:32:07.185Z,6.48
2018-03-11T00:32:46.168Z,6.55
2018-03-11T00:34:07.157Z,6.52
2018-03-11T00:34:46.163Z,6.52
2018-03-11T00:35:46.134Z,6.40
2018-03-11T00:37:07.119Z,6.46
2018-03-11T00:37:46.104Z,6.44
2018-03-11T00:39:07.096Z,6.40
2018-03-11T00:39:46.081Z,6.40
2018-03-11T00:40:46.069Z,6.40
2018-03-11T00:42:07.053Z,6.40
2018-03-11T00:42:46.034Z,6.38
2018-03-11T00:44:07.019Z,6.34
2018-03-11T00:44:46.004Z,6.38
2018-03-11T00:45:46.028Z,6.38
2018-03-11T00:47:06.983Z,6.41
2018-03-11T00:47:45.972Z,6.41
2018-03-11T00:49:06.961Z,6.38
2018-03-11T00:49:45.938Z,6.41
2018-03-11T00:50:45.925Z,6.38
2018-03-11T00:52:06.910Z,6.44
2018-03-11T00:52:45.898Z,6.34
2018-03-11T00:54:06.890Z,6.43
2018-03-11T00:54:45.871Z,6.46
2018-03-11T00:55:45.856Z,6.43
2018-03-11T00:57:06.853Z,6.51
2018-03-11T00:57:45.833Z,6.46
2018-03-11T00:59:06.825Z,6.44
2018-03-11T00:59:45.808Z,6.48
2018-03-11T01:00:45.797Z,6.41
2018-03-11T01:02:06.783Z,6.38
2018-03-11T01:02:45.768Z,6.40
2018-03-11T01:04:06.762Z,6.40
2018-03-11T01:04:45.739Z,6.41
2018-03-11T01:05:45.724Z,6.40
2018-03-11T01:07:06.716Z,6.37
2018-03-11T01:07:45.699Z,6.33
2018-03-11T01:09:06.682Z,6.33
2018-03-11T01:09:45.671Z,6.38
2018-03-11T01:10:45.667Z,6.25
2018-03-11T01:12:06.646Z,6.30
2018-03-11T01:12:45.628Z,6.34
2018-03-11T01:14:06.624Z,6.43
2018-03-11T01:14:45.605Z,6.41
2018-03-11T01:15:45.591Z,6.46
2018-03-11T01:17:06.679Z,6.46
2018-03-11T01:17:45.561Z,6.48
2018-03-11T01:19:06.552Z,6.59
2018-03-11T01:19:45.535Z,6.66
2018-03-11T01:20:45.522Z,6.66
2018-03-11T01:22:06.573Z,6.73
2018-03-11T01:22:45.496Z,6.73
2018-03-11T01:24:06.492Z,6.69
2018-03-11T01:24:45.471Z,6.69
2018-03-11T01:25:45.455Z,6.66
2018-03-11T01:27:06.446Z,6.73
2018-03-11T01:27:45.426Z,6.66
2018-03-11T01:29:06.456Z,6.69
2018-03-11T01:29:45.401Z,6.61
2018-03-11T01:30:45.388Z,6.58
2018-03-11T01:32:06.379Z,6.56
2018-03-11T01:32:45.358Z,6.58
2018-03-11T01:34:06.422Z,6.55
2018-03-11T01:34:45.335Z,6.61
2018-03-11T01:35:45.320Z,6.61
2018-03-11T01:37:06.311Z,6.66
2018-03-11T01:37:45.300Z,6.69
2018-03-11T01:39:06.370Z,6.66
2018-03-11T01:39:45.273Z,6.62
2018-03-11T01:40:45.256Z,6.69
2018-03-11T01:42:06.242Z,6.59
2018-03-11T01:42:45.231Z,6.61
2018-03-11T01:44:06.220Z,6.64
2018-03-11T01:44:45.202Z,6.56
2018-03-11T01:45:45.191Z,6.56
2018-03-11T01:47:06.178Z,6.59
2018-03-11T01:47:45.160Z,6.61
2018-03-11T01:49:06.151Z,6.66
2018-03-11T01:49:45.140Z,6.67
2018-03-11T01:50:45.117Z,6.55
2018-03-11T01:52:06.113Z,6.64
2018-03-11T01:52:45.094Z,6.55
2018-03-11T01:54:06.088Z,6.52
2018-03-11T01:54:45.069Z,6.52
2018-03-11T01:55:45.053Z,6.43
2018-03-11T01:57:06.048Z,6.38
2018-03-11T01:57:45.027Z,6.43
2018-03-11T01:59:06.022Z,6.40
2018-03-11T01:59:44.994Z,6.34
2018-03-11T02:00:44.985Z,6.19
2018-03-11T02:02:05.982Z,6.21
2018-03-11T02:02:44.962Z,6.18
2018-03-11T02:04:05.950Z,6.19
2018-03-11T02:04:44.945Z,6.14
2018-03-11T02:05:44.926Z,6.15
2018-03-11T02:07:05.909Z,6.14
2018-03-11T02:07:44.896Z,6.11
2018-03-11T02:09:05.893Z,6.04
2018-03-11T02:09:44.868Z,6.09
2018-03-11T02:10:44.855Z,6.11
2018-03-11T02:12:05.840Z,6.11
2018-03-11T02:12:44.831Z,6.06
2018-03-11T02:14:05.827Z,6.06
2018-03-11T02:14:44.803Z,6.01
2018-03-11T02:15:44.788Z,6.04
2018-03-11T02:17:05.781Z,6.04
2018-03-11T02:17:44.762Z,6.06
2018-03-11T02:19:05.754Z,6.03
2018-03-11T02:19:44.736Z,6.00
2018-03-11T02:20:44.726Z,5.97
2018-03-11T02:22:05.711Z,5.96
2018-03-11T02:22:44.712Z,5.91
2018-03-11T02:24:05.687Z,5.83
2018-03-11T02:24:44.671Z,5.79
2018-03-11T02:25:44.652Z,5.81
2018-03-11T02:27:05.648Z,5.83
2018-03-11T02:27:44.628Z,5.78
2018-03-11T02:29:05.622Z,5.81
2018-03-11T02:29:44.599Z,5.79
2018-03-11T02:30:44.588Z,5.90
2018-03-11T02:32:05.580Z,5.93
2018-03-11T02:32:44.564Z,6.12
2018-03-11T02:34:05.552Z,6.15
2018-03-11T02:34:44.533Z,6.28
2018-03-11T02:35:44.519Z,6.44
2018-03-11T02:37:05.507Z,6.48
2018-03-11T02:37:44.492Z,6.62
2018-03-11T02:39:05.482Z,6.71
2018-03-11T02:39:44.472Z,6.70
2018-03-11T02:40:44.449Z,6.67
2018-03-11T02:42:05.447Z,6.71
2018-03-11T02:42:44.426Z,6.71
2018-03-11T02:44:05.424Z,6.74
2018-03-11T02:44:44.401Z,6.66
2018-03-11T02:45:44.391Z,6.64
2018-03-11T02:47:05.377Z,6.59
2018-03-11T02:47:44.367Z,6.67
2018-03-11T02:49:05.354Z,6.52
2018-03-11T02:49:44.338Z,6.43
2018-03-11T02:50:44.323Z,6.37
2018-03-11T02:52:05.306Z,6.28
2018-03-11T02:52:44.289Z,6.15
2018-03-11T02:54:05.282Z,6.21
2018-03-11T02:54:44.267Z,6.19
2018-03-11T02:55:44.254Z,6.15
2018-03-11T02:57:05.244Z,6.09
2018-03-11T02:57:44.221Z,6.11
2018-03-11T02:59:05.213Z,6.12
2018-03-11T02:59:44.195Z,6.09
2018-03-11T03:00:44.187Z,6.08
2018-03-11T03:02:05.175Z,6.00
2018-03-11T03:02:44.164Z,6.11
2018-03-11T03:04:05.145Z,6.11
2018-03-11T03:04:44.140Z,6.11
2018-03-11T03:05:44.122Z,6.03
2018-03-11T03:07:05.112Z,5.91
2018-03-11T03:07:44.093Z,5.99
2018-03-11T03:09:05.082Z,6.04
2018-03-11T03:09:44.085Z,6.14
2018-03-11T03:10:44.053Z,6.01
2018-03-11T03:12:05.042Z,6.00
2018-03-11T03:12:44.024Z,5.93
2018-03-11T03:14:05.010Z,6.00
2018-03-11T03:14:43.993Z,6.00
2018-03-11T03:15:43.984Z,6.03
2018-03-11T03:17:04.975Z,6.00
2018-03-11T03:17:43.956Z,5.93
2018-03-11T03:19:04.945Z,5.89
2018-03-11T03:19:43.931Z,5.91
2018-03-11T03:20:43.910Z,5.93
2018-03-11T03:22:04.906Z,5.93
2018-03-11T03:22:43.887Z,5.90
2018-03-11T03:24:04.882Z,5.94
2018-03-11T03:24:43.869Z,5.93
2018-03-11T03:25:43.852Z,5.85
2018-03-11T03:27:04.836Z,5.83
2018-03-11T03:27:43.821Z,5.83
2018-03-11T03:29:04.814Z,5.86
2018-03-11T03:29:43.795Z,5.85
2018-03-11T03:30:43.820Z,5.93
2018-03-11T03:32:04.771Z,5.96
2018-03-11T03:32:43.751Z,5.90
2018-03-11T03:34:04.748Z,5.94
2018-03-11T03:34:43.727Z,5.96
2018-03-11T03:35:43.715Z,5.99
2018-03-11T03:37:04.706Z,6.00
2018-03-11T03:37:43.686Z,6.00
2018-03-11T03:39:04.678Z,6.15
2018-03-11T03:39:43.663Z,5.99
2018-03-11T03:40:43.650Z,6.08
2018-03-11T03:42:04.640Z,6.19
2018-03-11T03:42:43.618Z,6.18
2018-03-11T03:44:04.614Z,6.28
2018-03-11T03:44:43.596Z,6.18
2018-03-11T03:45:43.581Z,6.28
2018-03-11T03:47:04.567Z,6.31
2018-03-11T03:47:43.551Z,6.30
2018-03-11T03:49:04.543Z,6.31
2018-03-11T03:49:43.533Z,6.14
2018-03-11T03:50:43.508Z,6.21
2018-03-11T03:52:04.506Z,6.25
2018-03-11T03:52:43.483Z,6.21
2018-03-11T03:54:04.478Z,6.19
2018-03-11T03:54:43.466Z,6.18
2018-03-11T03:55:43.452Z,6.11
2018-03-11T03:57:04.436Z,6.15
2018-03-11T03:57:43.417Z,6.15
2018-03-11T03:59:04.407Z,6.17
2018-03-11T03:59:43.387Z,6.14
2018-03-11T04:00:43.373Z,6.15
2018-03-11T04:02:04.368Z,6.15
2018-03-11T04:02:43.358Z,6.21
2018-03-11T04:04:04.340Z,6.11
2018-03-11T04:04:43.326Z,6.09
2018-03-11T04:05:43.320Z,6.09
2018-03-11T04:07:04.304Z,6.06
2018-03-11T04:07:43.282Z,6.11
2018-03-11T04:09:04.274Z,6.09
2018-03-11T04:09:43.262Z,6.04
2018-03-11T04:10:43.247Z,6.15
2018-03-11T04:12:04.235Z,6.11
2018-03-11T04:12:43.219Z,6.15
2018-03-11T04:14:04.207Z,6.06
2018-03-11T04:14:43.188Z,6.11
2018-03-11T04:15:43.177Z,6.04
2018-03-11T04:17:04.165Z,6.06
2018-03-11T04:17:43.152Z,5.91
2018-03-11T04:19:04.140Z,5.90
2018-03-11T04:19:43.122Z,5.93
2018-03-11T04:20:43.114Z,5.89
2018-03-11T04:22:04.098Z,5.93
2018-03-11T04:22:43.085Z,5.96
2018-03-11T04:24:04.078Z,5.97
2018-03-11T04:24:43.060Z,6.00
2018-03-11T04:25:43.046Z,6.14
2018-03-11T04:27:04.029Z,6.15
2018-03-11T04:27:43.012Z,6.30
2018-03-11T04:29:04.003Z,6.44
2018-03-11T04:29:42.989Z,6.40
2018-03-11T04:30:42.982Z,6.37
2018-03-11T04:32:03.966Z,6.41
2018-03-11T04:32:42.954Z,6.37
2018-03-11T04:34:03.939Z,6.34
2018-03-11T04:34:42.921Z,6.38
2018-03-11T04:35:42.912Z,6.31
2018-03-11T04:37:03.901Z,6.25
2018-03-11T04:37:42.879Z,6.34
2018-03-11T04:39:03.869Z,6.28
2018-03-11T04:39:42.851Z,6.28
2018-03-11T04:40:42.843Z,6.25
2018-03-11T04:42:03.834Z,6.21
2018-03-11T04:42:42.813Z,6.14
2018-03-11T04:44:03.808Z,6.15
2018-03-11T04:44:42.790Z,6.19
2018-03-11T04:45:42.776Z,6.17
2018-03-11T04:47:03.763Z,6.15
2018-03-11T04:47:42.768Z,6.12
2018-03-11T04:49:03.746Z,6.19
2018-03-11T04:49:42.723Z,6.34
2018-03-11T04:50:42.707Z,6.41
2018-03-11T04:52:03.697Z,6.41
2018-03-11T04:52:42.683Z,6.41
2018-03-11T04:54:03.674Z,6.54
2018-03-11T04:54:42.657Z,6.59
2018-03-11T04:55:42.637Z,6.58
2018-03-11T04:57:03.630Z,6.70
2018-03-11T04:57:42.616Z,6.70
2018-03-11T04:59:03.602Z,6.70
2018-03-11T04:59:42.588Z,6.70
2018-03-11T05:00:42.577Z,6.79
2018-03-11T05:02:03.564Z,6.85
2018-03-11T05:02:42.547Z,6.77
2018-03-11T05:04:03.540Z,6.85
2018-03-11T05:04:42.513Z,6.91
2018-03-11T05:05:42.508Z,6.85
2018-03-11T05:07:03.496Z,6.97
2018-03-11T05:07:42.489Z,6.98
2018-03-11T05:09:03.477Z,6.97
2018-03-11T05:09:42.456Z,6.99
2018-03-11T05:10:42.440Z,6.95
2018-03-11T05:12:03.428Z,6.99
2018-03-11T05:12:42.419Z,6.97
2018-03-11T05:14:03.405Z,7.02
2018-03-11T05:14:42.387Z,6.98
2018-03-11T05:15:42.376Z,7.15
2018-03-11T05:17:03.364Z,7.24
2018-03-11T05:17:42.348Z,7.21
2018-03-11T05:19:03.334Z,7.21
2018-03-11T05:19:42.315Z,7.27
2018-03-11T05:20:42.305Z,7.28
2018-03-11T05:22:03.304Z,7.16
2018-03-11T05:22:42.281Z,7.17
2018-03-11T05:24:03.274Z,7.23
2018-03-11T05:24:42.252Z,7.16
2018-03-11T05:25:42.245Z,7.23
2018-03-11T05:27:03.251Z,7.17
2018-03-11T05:27:42.219Z,6.98
2018-03-11T05:29:03.203Z,6.85
2018-03-11T05:29:42.218Z,6.70
2018-03-11T05:30:42.176Z,6.67
2018-03-11T05:32:03.166Z,6.66
2018-03-11T05:32:42.167Z,6.58
2018-03-11T05:34:03.137Z,6.48
2018-03-11T05:34:42.126Z,6.55
2018-03-11T05:35:42.109Z,6.54
2018-03-11T05:37:03.103Z,6.46
2018-03-11T05:37:42.082Z,6.43
2018-03-11T05:39:03.068Z,6.44
2018-03-11T05:39:42.056Z,6.36
2018-03-11T05:40:42.040Z,6.36
2018-03-11T05:42:03.034Z,6.31
2018-03-11T05:42:42.008Z,6.27
2018-03-11T05:44:03.006Z,6.28
2018-03-11T05:44:41.983Z,6.28
2018-03-11T05:45:41.976Z,6.28
2018-03-11T05:47:02.967Z,6.31
2018-03-11T05:47:41.952Z,6.27
2018-03-11T05:49:02.937Z,6.28
2018-03-11T05:49:41.926Z,6.33
2018-03-11T05:50:41.911Z,6.34
2018-03-11T05:52:02.905Z,6.38
2018-03-11T05:52:41.891Z,6.40
2018-03-11T05:54:02.875Z,6.40
2018-03-11T05:54:41.852Z,6.36
2018-03-11T05:55:41.841Z,6.40
2018-03-11T05:57:02.836Z,6.43
2018-03-11T05:57:41.808Z,6.40
2018-03-11T05:59:02.799Z,6.40
2018-03-11T05:59:41.822Z,6.28
2018-03-11T06:00:41.772Z,6.31
2018-03-11T06:02:02.767Z,6.38
2018-03-11T06:02:41.747Z,6.37
2018-03-11T06:04:02.745Z,6.37
2018-03-11T06:04:41.719Z,6.31
2018-03-11T06:05:41.712Z,6.34
2018-03-11T06:07:02.696Z,6.25
2018-03-11T06:07:41.682Z,6.30
2018-03-11T06:09:02.673Z,6.31
2018-03-11T06:09:41.657Z,6.34
2018-03-11T06:10:41.644Z,6.34
2018-03-11T06:12:02.640Z,6.36
2018-03-11T06:12:41.617Z,6.46
2018-03-11T06:14:02.605Z,6.44
2018-03-11T06:14:41.583Z,6.54
2018-03-11T06:15:41.583Z,6.61
2018-03-11T06:17:02.566Z,6.67
2018-03-11T06:17:41.546Z,6.67
2018-03-11T06:19:02.542Z,6.80
2018-03-11T06:19:41.520Z,6.85
2018-03-11T06:20:41.506Z,6.97
2018-03-11T06:22:02.497Z,6.97
2018-03-11T06:22:41.485Z,6.97
2018-03-11T06:24:02.470Z,6.99
2018-03-11T06:24:41.454Z,7.09
2018-03-11T06:25:41.446Z,7.06
2018-03-11T06:27:02.437Z,7.10
2018-03-11T06:27:41.419Z,7.16
2018-03-11T06:29:02.425Z,7.16
2018-03-11T06:29:41.392Z,7.17
2018-03-11T06:30:41.378Z,7.23
2018-03-11T06:32:02.371Z,7.24
2018-03-11T06:32:41.350Z,7.25
2018-03-11T06:34:02.342Z,7.17
2018-03-11T06:34:41.325Z,7.28
2018-03-11T06:35:41.306Z,7.24
2018-03-11T06:37:02.306Z,7.30
2018-03-11T06:37:41.284Z,7.30
2018-03-11T06:39:02.274Z,7.28
2018-03-11T06:39:41.255Z,7.39
2018-03-11T06:40:41.244Z,7.34
2018-03-11T06:42:02.239Z,7.39
2018-03-11T06:42:41.216Z,7.42
2018-03-11T06:44:02.213Z,7.35
2018-03-11T06:44:41.192Z,7.35
2018-03-11T06:45:41.178Z,7.46
2018-03-11T06:47:02.169Z,7.49
2018-03-11T06:47:41.153Z,7.48
2018-03-11T06:49:02.147Z,7.31
2018-03-11T06:49:41.128Z,7.35
2018-03-11T06:50:41.111Z,7.31
2018-03-11T06:52:02.103Z,7.27
2018-03-11T06:52:41.087Z,7.27
2018-03-11T06:54:02.081Z,7.24
2018-03-11T06:54:41.059Z,7.32
2018-03-11T06:55:41.056Z,7.21
2018-03-11T06:57:02.042Z,7.24
2018-03-11T06:57:41.026Z,7.25
2018-03-11T06:59:02.017Z,7.30
2018-03-11T06:59:40.998Z,7.25
2018-03-11T07:00:40.989Z,7.21
2018-03-11T07:02:01.978Z,7.21
2018-03-11T07:02:40.961Z,7.17
2018-03-11T07:04:01.949Z,7.21
2018-03-11T07:04:40.940Z,7.21
2018-03-11T07:05:40.919Z,7.27
2018-03-11T07:07:01.912Z,7.28
2018-03-11T07:07:40.889Z,7.17
2018-03-11T07:09:01.878Z,7.25
2018-03-11T07:09:40.869Z,7.31
2018-03-11T07:10:40.856Z,7.30
2018-03-11T07:12:01.854Z,7.37
2018-03-11T07:12:40.828Z,7.31
2018-03-11T07:14:01.823Z,7.31
2018-03-11T07:14:40.805Z,7.37
2018-03-11T07:15:40.797Z,7.45
2018-03-11T07:17:01.781Z,7.45
2018-03-11T07:17:40.765Z,7.52
2018-03-11T07:19:01.753Z,7.60
2018-03-11T07:19:40.740Z,7.68
2018-03-11T07:20:40.727Z,7.50
2018-03-11T07:22:01.716Z,7.52
2018-03-11T07:22:40.702Z,7.67
2018-03-11T07:24:01.686Z,7.67
2018-03-11T07:24:40.676Z,7.58
2018-03-11T07:25:40.669Z,7.71
2018-03-11T07:27:01.652Z,7.64
2018-03-11T07:27:40.640Z,7.71
2018-03-11T07:29:01.633Z,7.68
2018-03-11T07:29:40.609Z,7.69
2018-03-11T07:30:40.600Z,7.61
2018-03-11T07:32:01.588Z,7.67
2018-03-11T07:32:40.575Z,7.53
2018-03-11T07:34:01.567Z,7.64
2018-03-11T07:34:40.542Z,7.58
2018-03-11T07:35:40.538Z,7.69
2018-03-11T07:37:01.528Z,7.71
2018-03-11T07:37:40.503Z,7.79
2018-03-11T07:39:01.500Z,7.71
2018-03-11T07:39:40.479Z,7.89
2018-03-11T07:40:40.469Z,7.89
2018-03-11T07:42:01.462Z,7.95
2018-03-11T07:42:40.446Z,7.93
2018-03-11T07:44:01.435Z,7.97
2018-03-11T07:44:40.415Z,8.05
2018-03-11T07:45:40.411Z,8.12
2018-03-11T07:47:01.397Z,8.11
2018-03-11T07:47:40.382Z,8.15
2018-03-11T07:49:01.374Z,8.18
2018-03-11T07:49:40.363Z,8.10
2018-03-11T07:50:40.346Z,8.12
2018-03-11T07:52:01.338Z,8.11
2018-03-11T07:52:40.326Z,8.16
2018-03-11T07:54:01.310Z,8.08
2018-03-11T07:54:40.340Z,8.12
2018-03-11T07:55:40.283Z,8.16
2018-03-11T07:57:01.270Z,8.10
2018-03-11T07:57:40.255Z,8.18
2018-03-11T07:59:01.244Z,8.26
2018-03-11T07:59:40.233Z,8.19
2018-03-11T08:00:40.219Z,8.19
2018-03-11T08:02:01.212Z,8.18
2018-03-11T08:02:40.198Z,8.37
2018-03-11T08:04:01.188Z,8.33
2018-03-11T08:04:40.171Z,8.28
2018-03-11T08:05:40.158Z,8.34
2018-03-11T08:07:01.148Z,8.36
2018-03-11T08:07:40.135Z,8.43
2018-03-11T08:09:01.139Z,8.40
2018-03-11T08:09:40.106Z,8.44
2018-03-11T08:10:40.092Z,8.53
2018-03-11T08:12:01.083Z,8.50
2018-03-11T08:12:40.100Z,8.56
2018-03-11T08:14:01.058Z,8.68
2018-03-11T08:14:40.046Z,8.70
2018-03-11T08:15:40.030Z,8.83
2018-03-11T08:17:01.027Z,8.84
2018-03-11T08:17:40.011Z,8.87
2018-03-11T08:19:01.001Z,8.86
2018-03-11T08:19:39.984Z,8.92
2018-03-11T08:20:39.976Z,8.96
2018-03-11T08:22:00.966Z,8.94
2018-03-11T08:22:39.949Z,9.05
2018-03-11T08:24:00.942Z,9.11
2018-03-11T08:24:39.922Z,9.08
2018-03-11T08:25:39.912Z,9.18
2018-03-11T08:27:00.899Z,9.23
2018-03-11T08:27:39.890Z,9.26
2018-03-11T08:29:00.878Z,9.31
2018-03-11T08:29:39.862Z,9.28
2018-03-11T08:30:39.862Z,9.29
2018-03-11T08:32:00.846Z,9.29
2018-03-11T08:32:39.840Z,9.36
2018-03-11T08:34:00.819Z,9.39
2018-03-11T08:34:39.809Z,9.38
2018-03-11T08:35:39.811Z,9.42
2018-03-11T08:37:00.790Z,9.47
2018-03-11T08:37:39.771Z,9.51
2018-03-11T08:39:00.767Z,9.51
2018-03-11T08:39:39.746Z,9.65
2018-03-11T08:40:39.734Z,9.66
2018-03-11T08:42:00.735Z,9.60
2018-03-11T08:42:39.716Z,9.74
2018-03-11T08:44:00.700Z,9.66
2018-03-11T08:44:39.689Z,9.74
2018-03-11T08:45:39.673Z,9.78
2018-03-11T08:47:00.668Z,9.81
2018-03-11T08:47:39.657Z,9.87
2018-03-11T08:49:00.647Z,9.96
2018-03-11T08:49:39.636Z,9.87
2018-03-11T08:50:39.613Z,9.97
2018-03-11T08:52:00.608Z,9.99
2018-03-11T08:52:39.594Z,9.96
2018-03-11T08:54:00.591Z,9.96
2018-03-11T08:54:39.569Z,9.97
2018-03-11T08:55:39.560Z,10.02
2018-03-11T08:57:00.551Z,10.12
2018-03-11T08:57:39.539Z,10.05
2018-03-11T08:59:00.533Z,10.14
2018-03-11T08:59:39.513Z,10.23
2018-03-11T09:00:39.503Z,10.22
2018-03-11T09:02:00.497Z,10.25
2018-03-11T09:02:39.482Z,10.22
2018-03-11T09:04:00.475Z,10.22
2018-03-11T09:04:39.461Z,10.32
2018-03-11T09:05:39.442Z,10.32
2018-03-11T09:07:00.440Z,10.32
2018-03-11T09:07:39.420Z,10.41
2018-03-11T09:09:00.417Z,10.47
2018-03-11T09:09:39.397Z,10.44
2018-03-11T09:10:39.388Z,10.52
2018-03-11T09:12:00.388Z,10.48
2018-03-11T09:12:39.371Z,10.52
2018-03-11T09:14:00.362Z,10.61
2018-03-11T09:14:39.348Z,10.64
2018-03-11T09:15:39.335Z,10.66
2018-03-11T09:17:00.326Z,10.63
2018-03-11T09:17:39.312Z,10.79
2018-03-11T09:19:00.303Z,10.88
2018-03-11T09:19:39.294Z,10.88
2018-03-11T09:20:39.278Z,10.91
2018-03-11T09:22:00.274Z,10.82
2018-03-11T09:22:39.258Z,10.78
2018-03-11T09:24:00.249Z,10.88
2018-03-11T09:24:39.236Z,10.94
2018-03-11T09:25:39.226Z,11.06
2018-03-11T09:27:00.220Z,11.14
2018-03-11T09:27:39.198Z,11.18
2018-03-11T09:29:00.199Z,11.25
2018-03-11T09:29:39.180Z,11.42
2018-03-11T09:30:39.175Z,11.37
2018-03-11T09:32:00.164Z,11.39
2018-03-11T09:32:39.148Z,11.28
2018-03-11T09:34:00.142Z,10.97
2018-03-11T09:34:39.121Z,10.86
2018-03-11T09:35:39.115Z,10.76
2018-03-11T09:37:00.112Z,10.89
2018-03-11T09:37:39.100Z,10.92
2018-03-11T09:39:00.090Z,10.97
2018-03-11T09:39:39.075Z,11.04
2018-03-11T09:40:39.066Z,11.11
2018-03-11T09:42:00.055Z,11.19
2018-03-11T09:42:39.045Z,11.27
2018-03-11T09:44:00.035Z,11.25
2018-03-11T09:44:39.025Z,11.32
2018-03-11T09:45:39.006Z,11.27
2018-03-11T09:47:00.007Z,11.42
2018-03-11T09:47:38.984Z,11.39
2018-03-11T09:48:59.980Z,11.40
2018-03-11T09:49:38.965Z,11.42
2018-03-11T09:50:38.952Z,11.54
2018-03-11T09:51:59.950Z,11.44
2018-03-11T09:52:38.932Z,11.51
2018-03-11T09:53:59.930Z,11.40
2018-03-11T09:54:38.912Z,11.40
2018-03-11T09:55:38.898Z,11.46
2018-03-11T09:56:59.924Z,11.57
2018-03-11T09:57:38.881Z,11.55
2018-03-11T09:58:59.878Z,11.73
2018-03-11T09:59:38.861Z,11.61
2018-03-11T10:00:38.848Z,11.62
2018-03-11T10:01:59.843Z,11.55
2018-03-11T10:02:38.831Z,11.72
2018-03-11T10:03:59.824Z,11.75
2018-03-11T10:04:38.805Z,11.85
2018-03-11T10:05:38.795Z,11.79
2018-03-11T10:06:59.795Z,11.79
2018-03-11T10:07:38.780Z,11.95
2018-03-11T10:08:59.771Z,12.02
2018-03-11T10:09:38.757Z,12.05
2018-03-11T10:10:38.799Z,12.12
2018-03-11T10:11:59.736Z,12.47
2018-03-11T10:12:38.724Z,12.85
2018-03-11T10:13:59.720Z,12.96
2018-03-11T10:14:38.699Z,12.97
2018-03-11T10:15:38.703Z,12.62
2018-03-11T10:16:59.686Z,12.87
2018-03-11T10:17:38.676Z,12.97
2018-03-11T10:18:59.670Z,13.26
2018-03-11T10:19:38.655Z,13.60
2018-03-11T10:20:38.649Z,13.91
2018-03-11T10:21:59.637Z,14.04
2018-03-11T10:22:38.623Z,14.20
2018-03-11T10:23:59.622Z,14.36
2018-03-11T10:24:38.601Z,14.57
2018-03-11T10:25:38.598Z,14.75
2018-03-11T10:26:59.593Z,14.98
2018-03-11T10:27:38.579Z,15.03
2018-03-11T10:28:59.577Z,15.01
2018-03-11T10:29:38.562Z,14.96
2018-03-11T10:30:38.549Z,15.02
2018-03-11T10:31:59.548Z,15.19
2018-03-11T10:32:38.531Z,15.53
2018-03-11T10:33:59.528Z,15.62
2018-03-11T10:34:38.514Z,15.62
2018-03-11T10:35:38.505Z,15.28
2018-03-11T10:36:59.500Z,15.23
2018-03-11T10:37:38.486Z,15.23
2018-03-11T10:38:59.481Z,15.01
2018-03-11T10:39:38.473Z,14.98
2018-03-11T10:40:38.460Z,14.61
2018-03-11T10:41:59.459Z,14.43
2018-03-11T10:42:38.448Z,14.37
2018-03-11T10:43:59.447Z,14.62
2018-03-11T10:44:38.426Z,14.94
2018-03-11T10:45:38.422Z,15.16
2018-03-11T10:46:59.415Z,15.49
2018-03-11T10:47:38.404Z,15.80
2018-03-11T10:48:59.402Z,16.17
2018-03-11T10:49:38.389Z,16.57
2018-03-11T10:50:38.374Z,16.97
2018-03-11T10:51:59.370Z,17.22
2018-03-11T10:52:38.364Z,17.52
2018-03-11T10:53:59.366Z,17.31
2018-03-11T10:54:38.346Z,17.06
2018-03-11T10:55:38.377Z,16.98
2018-03-11T10:56:59.341Z,16.38
2018-03-11T10:57:38.326Z,16.24
2018-03-11T10:58:59.322Z,16.24
2018-03-11T10:59:38.308Z,16.33
2018-03-11T11:00:38.297Z,16.78
2018-03-11T11:01:59.299Z,16.46
2018-03-11T11:02:38.285Z,15.64
2018-03-11T11:03:59.914Z,15.47
2018-03-11T11:04:38.269Z,15.32
2018-03-11T11:05:38.265Z,15.36
2018-03-11T11:06:59.266Z,15.28
2018-03-11T11:07:38.247Z,15.28
2018-03-11T11:08:59.252Z,15.19
2018-03-11T11:09:38.240Z,14.80
2018-03-11T11:10:38.228Z,14.95
2018-03-11T11:11:59.226Z,14.99
2018-03-11T11:12:38.211Z,14.94
2018-03-11T11:13:59.208Z,14.91
2018-03-11T11:14:38.194Z,14.78
2018-03-11T11:15:38.184Z,14.84
2018-03-11T11:16:59.184Z,14.96
2018-03-11T11:17:38.169Z,15.01
2018-03-11T11:18:59.169Z,15.07
2018-03-11T11:19:38.155Z,15.06
2018-03-11T11:20:38.150Z,15.02
2018-03-11T11:21:59.148Z,14.98
2018-03-11T11:22:38.136Z,14.96
2018-03-11T11:23:59.135Z,15.03
2018-03-11T11:24:38.116Z,15.02
2018-03-11T11:25:38.157Z,14.89
2018-03-11T11:26:59.105Z,14.96
2018-03-11T11:27:38.091Z,14.89
2018-03-11T11:28:59.093Z,14.94
2018-03-11T11:29:38.080Z,14.89
2018-03-11T11:30:38.071Z,14.91
2018-03-11T11:31:59.069Z,15.03
2018-03-11T11:32:38.054Z,14.96
2018-03-11T11:33:59.062Z,15.09
2018-03-11T11:34:38.037Z,15.07
2018-03-11T11:35:38.030Z,14.98
2018-03-11T11:36:59.032Z,14.99
2018-03-11T11:37:38.013Z,15.10
2018-03-11T11:38:59.008Z,15.27
2018-03-11T11:39:37.994Z,15.51
2018-03-11T11:40:37.992Z,15.65
2018-03-11T11:41:58.990Z,15.62
2018-03-11T11:42:37.971Z,15.75
2018-03-11T11:43:58.964Z,15.90
2018-03-11T11:44:37.958Z,15.83
2018-03-11T11:45:37.947Z,15.82
2018-03-11T11:46:58.943Z,15.84
2018-03-11T11:47:37.935Z,15.93
2018-03-11T11:48:58.932Z,16.11
2018-03-11T11:49:37.917Z,16.48
2018-03-11T11:50:37.909Z,16.85
2018-03-11T11:51:58.908Z,17.12
2018-03-11T11:52:37.899Z,17.14
2018-03-11T11:53:58.894Z,17.03
2018-03-11T11:54:37.877Z,17.01
2018-03-11T11:55:37.868Z,17.08
2018-03-11T11:56:58.866Z,17.33
2018-03-11T11:57:37.855Z,17.07
2018-03-11T11:58:58.855Z,16.86
2018-03-11T11:59:37.840Z,16.68
2018-03-11T12:00:37.834Z,16.86
2018-03-11T12:01:58.837Z,16.96
2018-03-11T12:02:37.820Z,16.98
2018-03-11T12:03:58.817Z,16.94
2018-03-11T12:04:37.807Z,16.66
2018-03-11T12:05:37.797Z,16.64
2018-03-11T12:06:58.800Z,16.46
2018-03-11T12:07:37.786Z,16.38
2018-03-11T12:08:58.784Z,16.45
2018-03-11T12:09:37.769Z,16.63
2018-03-11T12:10:37.756Z,16.91
2018-03-11T12:11:58.759Z,17.04
2018-03-11T12:12:37.746Z,17.31
2018-03-11T12:13:58.760Z,17.31
2018-03-11T12:14:37.731Z,17.22
2018-03-11T12:15:37.722Z,17.22
2018-03-11T12:16:58.725Z,17.34
2018-03-11T12:17:37.714Z,17.33
2018-03-11T12:18:58.709Z,17.49
2018-03-11T12:19:37.699Z,17.59
2018-03-11T12:20:37.698Z,17.58
2018-03-11T12:21:58.695Z,17.33
2018-03-11T12:22:37.717Z,17.16
2018-03-11T12:23:58.679Z,17.11
2018-03-11T12:24:37.668Z,17.18
2018-03-11T12:25:37.655Z,17.15
2018-03-11T12:26:58.651Z,17.01
2018-03-11T12:27:37.643Z,16.73
2018-03-11T12:28:58.645Z,16.70
2018-03-11T12:29:37.636Z,16.71
2018-03-11T12:30:37.624Z,16.68
2018-03-11T12:31:58.623Z,16.39
2018-03-11T12:32:37.608Z,16.07
2018-03-11T12:33:58.608Z,15.89
2018-03-11T12:34:37.592Z,15.62
2018-03-11T12:35:37.593Z,15.57
2018-03-11T12:36:58.586Z,15.46
2018-03-11T12:37:37.573Z,15.49
2018-03-11T12:38:58.572Z,15.53
2018-03-11T12:39:37.557Z,15.56
2018-03-11T12:40:37.549Z,15.57
2018-03-11T12:41:58.551Z,15.56
2018-03-11T12:42:37.536Z,15.60
2018-03-11T12:43:58.537Z,15.67
2018-03-11T12:44:37.523Z,15.75
2018-03-11T12:45:37.517Z,15.86
2018-03-11T12:46:58.514Z,15.94
2018-03-11T12:47:37.500Z,16.20
2018-03-11T12:48:58.507Z,16.20
2018-03-11T12:49:37.480Z,16.34
2018-03-11T12:50:37.476Z,16.42
2018-03-11T12:51:58.475Z,16.28
2018-03-11T12:52:37.491Z,16.20
2018-03-11T12:53:58.462Z,16.20
2018-03-11T12:54:37.454Z,16.09
2018-03-11T12:55:37.448Z,16.08
2018-03-11T12:56:58.441Z,16.04
2018-03-11T12:57:37.431Z,16.08
2018-03-11T12:58:58.423Z,16.11
2018-03-11T12:59:37.413Z,16.07
2018-03-11T13:00:37.405Z,16.17
2018-03-11T13:01:58.402Z,16.23
2018-03-11T13:02:37.389Z,16.24
2018-03-11T13:03:58.394Z,16.33
2018-03-11T13:04:37.373Z,16.30
2018-03-11T13:05:37.374Z,16.12
2018-03-11T13:06:58.371Z,16.15
2018-03-11T13:07:37.355Z,16.17
2018-03-11T13:08:58.377Z,16.21
2018-03-11T13:09:37.346Z,16.21